createdAt,value
2023-11-19T00:01:02.496Z,2.99
2023-11-19T00:05:06.387Z,3.03
2023-11-19T00:09:08.552Z,3.03
2023-11-19T00:13:10.229Z,3.01
2023-11-19T00:17:11.930Z,3.05
2023-11-19T00:21:14.923Z,2.93
2023-11-19T00:25:16.789Z,2.94
2023-11-19T00:29:18.612Z,2.91
2023-11-19T00:33:20.286Z,2.89
2023-11-19T00:37:23.283Z,2.76
2023-11-19T00:41:24.967Z,2.76
2023-11-19T00:45:26.801Z,2.69
2023-11-19T00:49:28.694Z,2.65
2023-11-19T00:53:31.804Z,2.70
2023-11-19T00:57:33.461Z,2.67
2023-11-19T01:01:35.134Z,2.64
2023-11-19T01:05:36.739Z,2.58
2023-11-19T01:09:39.893Z,2.58
2023-11-19T01:13:41.560Z,2.57
2023-11-19T01:17:52.747Z,2.61
2023-11-19T01:21:55.736Z,2.57
2023-11-19T01:25:58.780Z,2.55
2023-11-19T01:30:00.425Z,2.65
2023-11-19T01:34:02.223Z,2.62
2023-11-19T01:38:03.947Z,2.61
2023-11-19T01:42:07.176Z,2.70
2023-11-19T01:46:09.065Z,2.64
2023-11-19T01:50:10.788Z,2.73
2023-11-19T01:54:13.679Z,2.78
2023-11-19T01:58:17.540Z,2.85
2023-11-19T02:02:19.806Z,2.93
2023-11-19T02:06:21.726Z,2.96
2023-11-19T02:10:23.480Z,2.99
2023-11-19T02:14:27.083Z,3.07
2023-11-19T02:18:29.486Z,3.03
2023-11-19T02:22:31.262Z,3.04
2023-11-19T02:26:40.584Z,3.04
2023-11-19T02:30:43.600Z,3.14
2023-11-19T02:34:45.278Z,3.13
2023-11-19T02:38:46.937Z,3.17
2023-11-19T02:42:48.575Z,3.25
2023-11-19T02:46:51.701Z,3.31
2023-11-19T02:50:53.417Z,3.28
2023-11-19T02:54:55.115Z,3.34
2023-11-19T02:58:56.853Z,3.35
2023-11-19T03:03:00.099Z,3.41
2023-11-19T03:07:01.950Z,3.42
2023-11-19T03:11:03.814Z,3.43
2023-11-19T03:15:06.447Z,3.52
2023-11-19T03:19:09.445Z,3.48
2023-11-19T03:23:11.121Z,3.52
2023-11-19T03:27:14.048Z,3.45
2023-11-19T03:31:16.587Z,3.45
2023-11-19T03:35:19.611Z,3.44
2023-11-19T03:39:21.311Z,3.49
2023-11-19T03:43:22.960Z,3.51
2023-11-19T03:47:24.763Z,3.52
2023-11-19T03:51:27.734Z,3.45
2023-11-19T03:55:29.770Z,3.46
2023-11-19T03:59:31.647Z,3.55
2023-11-19T04:03:33.332Z,3.52
2023-11-19T04:07:36.483Z,3.56
2023-11-19T04:11:38.109Z,3.61
2023-11-19T04:15:39.734Z,3.64
2023-11-19T04:19:41.501Z,3.66
2023-11-19T04:23:44.591Z,3.61
2023-11-19T04:27:46.286Z,3.49
2023-11-19T04:31:47.987Z,3.39
2023-11-19T04:35:49.752Z,3.33
2023-11-19T04:39:52.926Z,3.30
2023-11-19T04:43:54.798Z,3.24
2023-11-19T04:47:56.511Z,3.18
2023-11-19T04:51:58.178Z,3.14
2023-11-19T04:56:01.313Z,3.12
2023-11-19T05:04:18.332Z,3.12
2023-11-19T05:08:20.572Z,3.14
2023-11-19T05:12:24.426Z,3.09
2023-11-19T05:16:26.233Z,3.13
2023-11-19T05:20:28.006Z,3.05
2023-11-19T05:24:29.978Z,3.00
2023-11-19T05:28:33.076Z,3.07
2023-11-19T05:32:34.941Z,3.09
2023-11-19T05:36:36.683Z,3.06
2023-11-19T05:40:38.325Z,3.08
2023-11-19T05:44:41.837Z,3.09
2023-11-19T05:48:43.651Z,3.01
2023-11-19T05:52:45.441Z,3.12
2023-11-19T05:56:48.787Z,3.13
2023-11-19T06:00:51.897Z,3.10
2023-11-19T06:04:53.700Z,3.13
2023-11-19T06:08:55.414Z,3.16
2023-11-19T06:12:57.117Z,3.06
2023-11-19T06:17:00.429Z,3.11
2023-11-19T06:21:02.155Z,3.15
2023-11-19T06:25:04.127Z,3.13
2023-11-19T06:29:05.775Z,3.18
2023-11-19T06:33:09.306Z,3.22
2023-11-19T06:37:11.144Z,3.34
2023-11-19T06:41:12.867Z,3.42
2023-11-19T06:45:14.603Z,3.47
2023-11-19T06:49:17.665Z,3.72
2023-11-19T06:53:19.300Z,3.79
2023-11-19T06:57:20.963Z,3.94
2023-11-19T07:01:22.676Z,3.99
2023-11-19T07:05:25.761Z,4.11
2023-11-19T07:09:27.424Z,4.24
2023-11-19T07:13:29.094Z,4.34
2023-11-19T07:17:31.058Z,4.48
2023-11-19T07:21:34.582Z,4.50
2023-11-19T07:25:36.255Z,4.55
2023-11-19T07:29:39.387Z,4.72
2023-11-19T07:33:41.269Z,4.91
2023-11-19T07:37:47.392Z,5.08
2023-11-19T07:41:49.035Z,5.12
2023-11-19T07:45:50.700Z,5.25
2023-11-19T07:49:52.533Z,5.25
2023-11-19T07:53:57.015Z,5.40
2023-11-19T07:57:58.629Z,5.44
2023-11-19T08:02:00.325Z,5.51
2023-11-19T08:06:02.135Z,5.55
2023-11-19T08:10:05.819Z,5.76
2023-11-19T08:14:07.506Z,6.07
2023-11-19T08:18:09.170Z,6.32
2023-11-19T08:22:10.828Z,6.61
2023-11-19T08:26:16.637Z,6.81
2023-11-19T08:30:19.959Z,7.20
2023-11-19T08:34:21.746Z,7.50
2023-11-19T08:42:29.326Z,7.94
2023-11-19T08:46:30.970Z,8.02
2023-11-19T08:50:32.946Z,8.08
2023-11-19T08:54:34.851Z,8.14
2023-11-19T08:58:38.188Z,8.05
2023-11-19T09:02:40.024Z,8.13
2023-11-19T09:06:41.841Z,8.29
2023-11-19T09:10:43.654Z,8.45
2023-11-19T09:14:46.752Z,8.49
2023-11-19T09:18:48.543Z,8.60
2023-11-19T09:22:50.186Z,8.72
2023-11-19T09:26:51.897Z,8.66
2023-11-19T09:30:54.974Z,8.60
2023-11-19T09:34:56.621Z,8.59
2023-11-19T09:38:58.336Z,8.58
2023-11-19T09:43:00.630Z,8.71
2023-11-19T09:47:05.066Z,8.82
2023-11-19T09:51:07.907Z,8.90
2023-11-19T09:55:09.936Z,8.92
2023-11-19T09:59:11.698Z,8.91
2023-11-19T10:03:15.404Z,8.77
2023-11-19T10:07:17.303Z,8.89
2023-11-19T10:11:19.050Z,9.16
2023-11-19T10:15:22.699Z,9.37
2023-11-19T10:19:25.699Z,9.71
2023-11-19T10:23:27.391Z,9.81
2023-11-19T10:27:29.140Z,9.91
2023-11-19T10:31:30.837Z,10.10
2023-11-19T10:35:34.424Z,10.21
2023-11-19T10:39:54.408Z,10.12
2023-11-19T10:43:57.361Z,10.21
2023-11-19T10:47:59.797Z,10.27
2023-11-19T10:52:06.043Z,10.26
2023-11-19T10:56:11.713Z,10.38
2023-11-19T11:00:17.112Z,10.42
2023-11-19T11:04:24.382Z,10.25
2023-11-19T11:08:27.589Z,10.10
2023-11-19T11:12:29.960Z,10.11
2023-11-19T11:16:32.678Z,10.04
2023-11-19T11:20:34.841Z,10.11
2023-11-19T11:25:07.008Z,10.23
2023-11-19T11:29:16.023Z,10.20
2023-11-19T11:33:33.641Z,10.24
2023-11-19T11:37:40.298Z,10.22
2023-11-19T11:41:43.323Z,10.24
2023-11-19T11:45:44.994Z,10.65
2023-11-19T11:49:47.832Z,11.12
2023-11-19T11:53:49.630Z,11.53
2023-11-19T11:57:52.674Z,11.62
2023-11-19T12:01:59.046Z,11.32
2023-11-19T12:06:00.847Z,11.39
2023-11-19T12:10:08.004Z,11.57
2023-11-19T12:14:11.003Z,11.48
2023-11-19T12:18:19.953Z,11.72
2023-11-19T12:22:21.691Z,11.85
2023-11-19T12:26:36.705Z,11.60
2023-11-19T12:30:40.246Z,11.82
2023-11-19T12:34:42.066Z,12.01
2023-11-19T12:38:43.768Z,12.13
2023-11-19T12:42:45.509Z,11.98
2023-11-19T12:47:00.696Z,11.23
2023-11-19T12:51:02.410Z,11.08
2023-11-19T12:55:04.724Z,11.06
2023-11-19T12:59:15.600Z,11.15
2023-11-19T13:03:30.814Z,10.97
2023-11-19T13:07:32.512Z,10.81
2023-11-19T13:11:35.700Z,11.25
2023-11-19T13:15:37.573Z,12.25
2023-11-19T13:19:40.661Z,12.71
2023-11-19T13:23:42.738Z,12.75
2023-11-19T13:27:47.019Z,12.66
2023-11-19T13:31:48.756Z,12.70
2023-11-19T13:35:51.919Z,12.57
2023-11-19T13:39:53.667Z,12.04
2023-11-19T13:43:55.403Z,11.79
2023-11-19T13:47:57.100Z,11.60
2023-11-19T13:52:00.212Z,11.60
2023-11-19T13:56:02.067Z,11.74
2023-11-19T14:00:04.784Z,11.82
2023-11-19T14:04:06.623Z,11.86
2023-11-19T14:08:13.863Z,11.71
2023-11-19T14:12:21.540Z,11.62
2023-11-19T14:16:23.247Z,11.58
2023-11-19T14:20:25.011Z,11.46
2023-11-19T14:24:28.070Z,11.25
2023-11-19T14:28:29.702Z,11.09
2023-11-19T14:32:31.367Z,11.13
2023-11-19T14:36:33.067Z,11.08
2023-11-19T14:44:40.688Z,10.96
2023-11-19T14:48:42.561Z,10.99
2023-11-19T14:52:44.226Z,10.89
2023-11-19T14:56:47.306Z,10.87
2023-11-19T15:00:49.017Z,10.83
2023-11-19T15:04:50.814Z,10.67
2023-11-19T15:08:52.715Z,10.56
2023-11-19T15:12:56.027Z,10.52
2023-11-19T15:16:57.825Z,10.29
2023-11-19T15:20:59.462Z,10.11
2023-11-19T15:25:01.231Z,10.04
2023-11-19T15:29:04.877Z,9.93
2023-11-19T15:33:06.551Z,9.94
2023-11-19T15:37:08.335Z,10.01
2023-11-19T15:41:13.250Z,9.92
2023-11-19T15:45:16.639Z,9.85
2023-11-19T15:49:18.536Z,9.72
2023-11-19T15:53:20.168Z,9.58
2023-11-19T15:57:21.836Z,9.61
2023-11-19T16:01:25.072Z,9.65
2023-11-19T16:05:26.880Z,9.56
2023-11-19T16:09:28.572Z,9.52
2023-11-19T16:13:30.208Z,9.41
2023-11-19T16:17:33.305Z,9.30
2023-11-19T16:21:35.263Z,9.19
2023-11-19T16:25:37.054Z,9.02
2023-11-19T16:29:38.798Z,9.06
2023-11-19T16:33:41.851Z,9.10
2023-11-19T16:37:43.596Z,9.14
2023-11-19T16:41:45.472Z,9.24
2023-11-19T16:45:47.275Z,9.28
2023-11-19T16:49:50.317Z,9.41
2023-11-19T16:53:51.989Z,9.40
2023-11-19T16:57:53.792Z,9.27
2023-11-19T17:01:55.416Z,9.41
2023-11-19T17:05:58.463Z,9.32
2023-11-19T17:10:00.317Z,9.35
2023-11-19T17:14:02.118Z,9.34
2023-11-19T17:18:04.008Z,9.56
2023-11-19T17:22:07.112Z,9.48
2023-11-19T17:26:08.976Z,9.58
2023-11-19T17:30:11.871Z,9.55
2023-11-19T17:34:13.676Z,9.30
2023-11-19T17:42:22.303Z,9.42
2023-11-19T17:46:24.039Z,9.57
2023-11-19T17:50:26.168Z,9.53
2023-11-19T17:54:29.256Z,9.68
2023-11-19T17:58:30.989Z,9.55
2023-11-19T18:06:37.331Z,9.68
2023-11-19T18:10:40.483Z,9.72
2023-11-19T18:18:46.940Z,9.81
2023-11-19T18:22:48.644Z,9.79
2023-11-19T18:26:51.773Z,9.82
2023-11-19T18:30:53.673Z,9.69
2023-11-19T18:34:55.353Z,9.56
2023-11-19T18:38:57.006Z,9.54
2023-11-19T18:43:00.242Z,9.30
2023-11-19T18:47:01.861Z,9.40
2023-11-19T18:51:04.097Z,9.29
2023-11-19T18:55:07.283Z,9.14
2023-11-19T18:59:10.436Z,9.12
2023-11-19T19:03:12.198Z,9.24
2023-11-19T19:07:13.944Z,9.29
2023-11-19T19:11:15.612Z,9.32
2023-11-19T19:15:18.697Z,9.33
2023-11-19T19:19:20.662Z,9.42
2023-11-19T19:23:22.358Z,9.52
2023-11-19T19:27:24.044Z,9.35
2023-11-19T19:31:27.087Z,9.50
2023-11-19T19:35:28.807Z,9.65
2023-11-19T19:39:30.531Z,9.62
2023-11-19T19:43:32.197Z,9.70
2023-11-19T19:47:35.293Z,9.85
2023-11-19T19:51:37.004Z,9.97
2023-11-19T19:55:38.689Z,9.90
2023-11-19T19:59:40.488Z,9.95
2023-11-19T20:03:43.667Z,9.97
2023-11-19T20:07:46.201Z,10.02
2023-11-19T20:11:48.138Z,10.04
2023-11-19T20:15:49.936Z,9.87
2023-11-19T20:19:53.029Z,9.91
2023-11-19T20:23:54.741Z,9.83
2023-11-19T20:27:56.450Z,9.80
2023-11-19T20:31:58.168Z,9.83
2023-11-19T20:36:01.196Z,9.81
2023-11-19T20:40:02.964Z,9.81
2023-11-19T20:44:05.120Z,9.75
2023-11-19T20:48:07.000Z,9.72
2023-11-19T20:52:10.037Z,9.70
2023-11-19T20:56:11.919Z,9.58
2023-11-19T21:00:14.233Z,9.63
2023-11-19T21:04:16.001Z,9.54
2023-11-19T21:08:18.988Z,9.38
2023-11-19T21:12:20.735Z,9.37
2023-11-19T21:16:22.472Z,9.32
2023-11-19T21:20:24.186Z,9.34
2023-11-19T21:24:27.294Z,9.32
2023-11-19T21:28:28.950Z,9.34
2023-11-19T21:32:30.827Z,9.32
2023-11-19T21:36:32.858Z,9.30
2023-11-19T21:40:36.026Z,9.24
2023-11-19T21:44:37.711Z,9.24
2023-11-19T21:48:39.427Z,9.35
2023-11-19T21:52:41.210Z,9.34
2023-11-19T21:56:46.770Z,9.39
2023-11-19T22:00:48.301Z,9.36
2023-11-19T22:04:50.353Z,9.36
2023-11-19T22:08:52.010Z,9.30
2023-11-19T22:12:55.105Z,9.10
2023-11-19T22:16:56.902Z,8.80
2023-11-19T22:20:58.630Z,8.72
2023-11-19T22:25:00.383Z,8.73
2023-11-19T22:29:03.550Z,8.88
2023-11-19T22:33:05.401Z,8.72
2023-11-19T22:37:07.183Z,8.82
2023-11-19T22:41:10.872Z,8.82
2023-11-19T22:45:14.584Z,8.86
2023-11-19T22:49:16.265Z,8.97
2023-11-19T22:53:17.919Z,9.08
2023-11-19T22:57:19.593Z,9.04
2023-11-19T23:01:23.156Z,9.11
2023-11-19T23:05:25.427Z,9.05
2023-11-19T23:09:27.087Z,9.19
2023-11-19T23:13:28.830Z,9.25
2023-11-19T23:17:31.924Z,9.27
2023-11-19T23:21:33.588Z,9.25
2023-11-19T23:25:35.212Z,9.44
2023-11-19T23:29:36.904Z,9.30
2023-11-19T23:33:40.014Z,9.20
2023-11-19T23:37:41.647Z,9.29
2023-11-19T23:41:43.451Z,9.27
2023-11-19T23:45:45.614Z,9.44
2023-11-19T23:49:48.705Z,9.57
2023-11-19T23:53:50.388Z,9.55
2023-11-19T23:57:52.065Z,9.38
